Terminal Aerodrome Forecast
Issued by NWS

Home | Current Version | Previous Version | Text Only | Print | Product List | Glossary On
Versions: 1 2 3 4 5 6 7 8 9 10 11 12
000
FTAK31 PAJN 041120
TAFASI
TAF
PASI 041120Z 0412/0512 VRB04KT P6SM SCT010 SCT150
     FM041800 28006KT P6SM BKN100
     FM050600 29005KT P6SM SCT025 SCT050 BKN100=

USA.gov is the U.S. government's official web portal to all federal, state and local government web resources and services.